createdAt,value
2019-02-18T00:00:41.101Z,59.33
2019-02-18T00:03:12.933Z,57.40
2019-02-18T00:05:44.556Z,54.43
2019-02-18T00:08:16.221Z,63.87
2019-02-18T00:10:47.853Z,60.53
2019-02-18T00:13:19.492Z,58.00
2019-02-18T00:15:51.121Z,63.40
2019-02-18T00:18:22.762Z,60.80
2019-02-18T00:20:54.396Z,68.03
2019-02-18T00:23:26.057Z,62.03
2019-02-18T00:25:57.750Z,65.10
2019-02-18T00:28:29.381Z,71.47
2019-02-18T00:31:01.005Z,66.97
2019-02-18T00:33:32.660Z,61.63
2019-02-18T00:36:04.301Z,73.37
2019-02-18T00:38:35.950Z,66.33
2019-02-18T00:41:07.664Z,57.83
2019-02-18T00:43:39.640Z,73.47
2019-02-18T00:46:11.472Z,70.60
2019-02-18T00:48:43.179Z,66.17
2019-02-18T00:51:14.913Z,65.20
2019-02-18T00:53:46.544Z,66.60
2019-02-18T00:56:18.249Z,65.67
2019-02-18T00:58:49.971Z,80.13
2019-02-18T01:01:21.676Z,65.73
2019-02-18T01:03:53.329Z,77.57
2019-02-18T01:06:24.950Z,77.73
2019-02-18T01:08:56.604Z,72.40
2019-02-18T01:11:28.249Z,70.33
2019-02-18T01:13:59.889Z,59.53
2019-02-18T01:16:31.570Z,64.83
2019-02-18T01:19:03.249Z,66.93
2019-02-18T01:21:34.882Z,66.07
2019-02-18T01:24:06.510Z,58.63
2019-02-18T01:26:38.129Z,64.37
2019-02-18T01:29:09.862Z,62.67
2019-02-18T01:31:41.481Z,65.87
2019-02-18T01:34:13.137Z,69.63
2019-02-18T01:36:44.780Z,72.87
2019-02-18T01:39:16.907Z,65.00
2019-02-18T01:41:48.608Z,58.83
2019-02-18T01:44:20.252Z,65.47
2019-02-18T01:46:51.882Z,74.87
2019-02-18T01:49:23.532Z,59.20
2019-02-18T01:51:55.156Z,54.20
2019-02-18T01:54:27.382Z,55.43
2019-02-18T01:56:59.018Z,56.53
2019-02-18T01:59:32.069Z,57.63
2019-02-18T02:02:03.801Z,52.47
2019-02-18T02:04:35.587Z,53.80
2019-02-18T02:07:07.328Z,64.77
2019-02-18T02:09:39.498Z,57.67
2019-02-18T02:12:11.276Z,61.87
2019-02-18T02:14:43.000Z,58.70
2019-02-18T02:17:14.714Z,60.27
2019-02-18T02:19:46.340Z,56.60
2019-02-18T02:22:17.954Z,56.90
2019-02-18T02:24:49.611Z,57.47
2019-02-18T02:27:21.334Z,64.33
2019-02-18T02:29:53.064Z,61.10
2019-02-18T02:32:24.758Z,62.10
2019-02-18T02:34:56.462Z,50.80
2019-02-18T02:37:28.101Z,52.53
2019-02-18T02:39:59.825Z,47.33
2019-02-18T02:42:31.470Z,60.67
2019-02-18T02:45:03.553Z,63.37
2019-02-18T02:47:35.211Z,66.57
2019-02-18T02:50:07.219Z,65.27
2019-02-18T02:52:38.905Z,62.23
2019-02-18T02:55:10.530Z,58.67
2019-02-18T02:57:42.153Z,63.87
2019-02-18T03:00:13.917Z,77.87
2019-02-18T03:02:45.558Z,77.03
2019-02-18T03:05:17.209Z,86.07
2019-02-18T03:07:48.990Z,79.70
2019-02-18T03:10:20.963Z,79.90
2019-02-18T03:12:52.750Z,83.87
2019-02-18T03:15:24.394Z,90.30
2019-02-18T03:17:56.040Z,88.90
2019-02-18T03:20:27.655Z,83.13
2019-02-18T03:22:59.293Z,82.90
2019-02-18T03:25:30.990Z,79.33
2019-02-18T03:28:40.559Z,88.83
2019-02-18T03:31:16.995Z,75.77
2019-02-18T03:33:52.826Z,78.50
2019-02-18T03:36:24.557Z,81.63
2019-02-18T03:38:56.294Z,85.30
2019-02-18T03:41:28.027Z,85.63
2019-02-18T03:43:59.652Z,78.07
2019-02-18T03:46:31.542Z,89.70
2019-02-18T03:49:03.171Z,85.30
2019-02-18T03:51:34.810Z,84.57
2019-02-18T03:54:06.441Z,94.30
2019-02-18T03:56:38.077Z,89.27
2019-02-18T03:59:09.705Z,88.80
2019-02-18T04:01:43.638Z,100.17
2019-02-18T04:04:15.761Z,94.53
2019-02-18T04:06:47.709Z,103.80
2019-02-18T04:09:19.426Z,89.13
2019-02-18T04:11:51.067Z,90.10
2019-02-18T04:14:22.738Z,92.07
2019-02-18T04:16:54.364Z,93.67
2019-02-18T04:19:25.989Z,91.43
2019-02-18T04:21:57.622Z,101.40
2019-02-18T04:24:29.246Z,87.97
2019-02-18T04:27:00.882Z,97.03
2019-02-18T04:29:32.677Z,98.40
2019-02-18T04:32:04.393Z,96.07
2019-02-18T04:34:36.129Z,88.47
2019-02-18T04:37:10.320Z,93.87
2019-02-18T04:39:41.949Z,104.37
2019-02-18T04:42:13.588Z,97.83
2019-02-18T04:44:45.258Z,98.50
2019-02-18T04:47:16.982Z,96.80
2019-02-18T04:49:48.705Z,104.20
2019-02-18T04:52:20.360Z,112.80
2019-02-18T04:54:52.056Z,108.80
2019-02-18T04:57:23.705Z,106.07
2019-02-18T04:59:55.342Z,92.43
2019-02-18T05:02:26.990Z,114.20
2019-02-18T05:04:58.626Z,102.23
2019-02-18T05:07:30.287Z,116.63
2019-02-18T05:10:02.053Z,110.73
2019-02-18T05:12:33.709Z,100.10
2019-02-18T05:15:05.549Z,105.70
2019-02-18T05:17:37.189Z,114.23
2019-02-18T05:20:08.987Z,128.40
2019-02-18T05:22:40.618Z,110.20
2019-02-18T05:25:13.009Z,93.33
2019-02-18T05:27:44.852Z,105.33
2019-02-18T05:30:16.472Z,128.40
2019-02-18T05:32:48.119Z,111.50
2019-02-18T05:35:19.744Z,116.97
2019-02-18T05:37:51.379Z,120.70
2019-02-18T05:40:23.130Z,125.87
2019-02-18T05:42:54.797Z,131.53
2019-02-18T05:45:26.461Z,124.63
2019-02-18T05:47:59.922Z,114.37
2019-02-18T05:50:31.569Z,126.47
2019-02-18T05:53:03.190Z,132.50
2019-02-18T05:55:34.942Z,122.30
2019-02-18T05:58:06.709Z,144.30
2019-02-18T06:00:38.380Z,140.83
2019-02-18T06:03:10.009Z,121.97
2019-02-18T06:05:41.638Z,132.37
2019-02-18T06:08:13.275Z,132.20
2019-02-18T06:10:44.922Z,135.47
2019-02-18T06:13:16.578Z,130.93
2019-02-18T06:15:48.197Z,129.83
2019-02-18T06:18:19.845Z,152.63
2019-02-18T06:20:51.484Z,140.27
2019-02-18T06:23:23.122Z,126.30
2019-02-18T06:25:54.752Z,126.33
2019-02-18T06:28:26.380Z,124.10
2019-02-18T06:30:58.025Z,124.27
2019-02-18T06:33:29.669Z,145.93
2019-02-18T06:36:01.306Z,132.23
2019-02-18T06:38:32.945Z,131.47
2019-02-18T06:41:04.590Z,144.93
2019-02-18T06:43:36.240Z,140.23
2019-02-18T06:46:28.295Z,134.53
2019-02-18T06:49:28.654Z,150.17
2019-02-18T06:52:00.265Z,125.97
2019-02-18T06:54:31.902Z,119.13
2019-02-18T06:57:20.391Z,118.67
2019-02-18T06:59:56.887Z,110.57
2019-02-18T07:02:51.106Z,112.67
2019-02-18T07:05:42.464Z,95.63
2019-02-18T07:08:36.690Z,81.83
2019-02-18T07:11:15.765Z,83.10
2019-02-18T07:13:47.381Z,72.93
2019-02-18T07:16:19.023Z,93.53
2019-02-18T07:18:50.658Z,84.10
2019-02-18T07:21:22.305Z,72.40
2019-02-18T07:23:53.938Z,65.83
2019-02-18T07:26:25.590Z,61.93
2019-02-18T07:28:57.201Z,59.20
2019-02-18T07:31:28.853Z,66.93
2019-02-18T07:34:00.516Z,63.23
2019-02-18T07:36:32.158Z,59.43
2019-02-18T07:39:05.334Z,52.67
2019-02-18T07:41:37.054Z,63.10
2019-02-18T07:44:08.706Z,46.30
2019-02-18T07:46:40.356Z,35.13
2019-02-18T07:49:11.993Z,39.07
2019-02-18T07:51:43.644Z,31.13
2019-02-18T07:54:15.327Z,30.07
2019-02-18T07:56:47.107Z,29.80
2019-02-18T07:59:18.736Z,32.93
2019-02-18T08:01:50.381Z,29.43
2019-02-18T08:04:22.014Z,27.20
2019-02-18T08:06:53.704Z,24.50
2019-02-18T08:09:25.436Z,23.20
2019-02-18T08:11:57.266Z,24.23
2019-02-18T08:14:28.942Z,31.57
2019-02-18T08:17:00.679Z,31.13
2019-02-18T08:19:32.417Z,24.40
2019-02-18T08:22:04.048Z,27.90
2019-02-18T08:24:35.690Z,25.33
2019-02-18T08:27:07.324Z,21.83
2019-02-18T08:29:39.097Z,28.60
2019-02-18T08:32:11.005Z,23.35
2019-02-18T08:34:42.722Z,23.55
2019-02-18T08:37:14.530Z,26.23
2019-02-18T08:39:46.200Z,33.30
2019-02-18T08:42:17.919Z,25.12
2019-02-18T08:44:49.732Z,26.55
2019-02-18T08:47:21.480Z,30.50
2019-02-18T08:49:53.145Z,23.35
2019-02-18T08:52:24.786Z,30.52
2019-02-18T08:54:57.002Z,25.82
2019-02-18T08:57:28.758Z,30.32
2019-02-18T09:00:00.429Z,26.57
2019-02-18T09:02:32.093Z,33.18
2019-02-18T09:05:04.226Z,33.55
2019-02-18T09:07:36.143Z,34.88
2019-02-18T09:10:08.721Z,27.75
2019-02-18T09:12:40.450Z,26.25
2019-02-18T09:15:14.178Z,35.98
2019-02-18T09:17:45.678Z,31.57
2019-02-18T09:20:17.346Z,29.75
2019-02-18T09:22:57.025Z,51.63
2019-02-18T09:25:38.402Z,42.67
2019-02-18T09:28:10.081Z,23.92
2019-02-18T09:30:43.637Z,34.40
2019-02-18T09:33:15.409Z,38.15
2019-02-18T09:35:47.088Z,94.72
2019-02-18T09:38:25.021Z,53.70
2019-02-18T09:40:52.386Z,31.10
2019-02-18T09:43:24.091Z,39.48
2019-02-18T09:45:55.765Z,24.32
2019-02-18T09:48:27.458Z,30.12
2019-02-18T09:51:00.188Z,80.85
2019-02-18T09:53:32.135Z,37.58
2019-02-18T09:56:03.830Z,51.25
2019-02-18T09:58:35.545Z,43.00
2019-02-18T10:01:07.221Z,77.25
2019-02-18T10:03:39.002Z,34.83
2019-02-18T10:06:10.697Z,54.08
2019-02-18T10:08:42.362Z,45.10
2019-02-18T10:11:14.043Z,46.53
2019-02-18T10:13:45.730Z,38.42
2019-02-18T10:16:17.394Z,29.27
2019-02-18T10:18:49.256Z,46.40
2019-02-18T10:21:21.534Z,37.03
2019-02-18T10:23:53.751Z,44.20
2019-02-18T10:26:25.973Z,29.80
2019-02-18T10:28:58.518Z,43.70
2019-02-18T10:31:31.258Z,31.12
2019-02-18T10:34:04.180Z,27.98
2019-02-18T10:36:36.693Z,23.38
2019-02-18T10:39:08.370Z,35.05
2019-02-18T10:41:40.017Z,23.77
2019-02-18T10:44:11.775Z,23.18
2019-02-18T10:46:43.441Z,22.87
2019-02-18T10:49:19.709Z,24.25
2019-02-18T10:51:48.749Z,48.87
2019-02-18T10:54:20.412Z,45.17
2019-02-18T10:56:52.181Z,31.48
2019-02-18T10:59:23.876Z,44.25
2019-02-18T11:01:55.559Z,35.85
2019-02-18T11:04:27.241Z,23.07
2019-02-18T11:06:58.910Z,26.10
2019-02-18T11:09:30.713Z,41.92
2019-02-18T11:12:02.581Z,30.97
2019-02-18T11:14:34.379Z,62.62
2019-02-18T11:17:06.229Z,26.17
2019-02-18T11:19:37.904Z,48.10
2019-02-18T11:22:09.556Z,29.55
2019-02-18T11:24:41.550Z,63.58
2019-02-18T11:27:13.328Z,26.62
2019-02-18T11:29:44.995Z,20.92
2019-02-18T11:32:16.682Z,23.12
2019-02-18T11:34:48.352Z,26.62
2019-02-18T11:37:20.127Z,21.93
2019-02-18T11:39:51.802Z,34.43
2019-02-18T11:42:23.609Z,24.02
2019-02-18T11:44:55.345Z,26.85
2019-02-18T11:47:28.288Z,24.55
2019-02-18T11:50:00.039Z,28.60
2019-02-18T11:52:31.794Z,25.77
2019-02-18T11:55:03.988Z,39.78
2019-02-18T11:57:36.302Z,36.98
2019-02-18T12:00:09.370Z,27.48
2019-02-18T12:02:41.233Z,25.35
2019-02-18T12:05:12.901Z,23.40
2019-02-18T12:07:44.660Z,21.97
2019-02-18T12:10:16.516Z,33.63
2019-02-18T12:12:48.268Z,23.38
2019-02-18T12:15:19.997Z,22.40
2019-02-18T12:17:51.862Z,22.20
2019-02-18T12:20:23.636Z,27.02
2019-02-18T12:22:55.317Z,33.60
2019-02-18T12:25:27.391Z,36.08
2019-02-18T12:27:59.076Z,31.42
2019-02-18T12:30:32.450Z,22.82
2019-02-18T12:33:04.346Z,24.43
2019-02-18T12:35:36.337Z,29.95
2019-02-18T12:38:08.196Z,63.45
2019-02-18T12:40:39.860Z,24.15
2019-02-18T12:43:11.705Z,23.27
2019-02-18T12:45:43.514Z,34.25
2019-02-18T12:48:15.317Z,24.27
2019-02-18T12:50:47.101Z,28.38
2019-02-18T12:53:18.751Z,23.27
2019-02-18T12:55:50.559Z,20.57
2019-02-18T12:58:22.322Z,21.42
2019-02-18T13:00:54.213Z,28.40
2019-02-18T13:03:26.433Z,29.57
2019-02-18T13:05:58.232Z,25.43
2019-02-18T13:08:30.104Z,29.95
2019-02-18T13:11:01.925Z,25.55
2019-02-18T13:13:33.711Z,26.27
2019-02-18T13:16:05.477Z,30.72
2019-02-18T13:18:37.568Z,25.68
2019-02-18T13:21:09.357Z,28.07
2019-02-18T13:23:41.249Z,39.15
2019-02-18T13:26:13.038Z,24.23
2019-02-18T13:28:44.705Z,28.73
2019-02-18T13:31:16.702Z,30.55
2019-02-18T13:33:48.442Z,30.72
2019-02-18T13:36:20.329Z,45.20
2019-02-18T13:38:51.998Z,65.85
2019-02-18T13:41:23.687Z,27.45
2019-02-18T13:43:55.762Z,29.67
2019-02-18T13:46:27.477Z,29.40
2019-02-18T13:48:59.189Z,36.77
2019-02-18T13:51:31.198Z,28.92
2019-02-18T13:54:02.872Z,29.75
2019-02-18T13:56:34.983Z,38.13
2019-02-18T13:59:06.786Z,26.75
2019-02-18T14:01:38.618Z,30.80
2019-02-18T14:04:10.386Z,26.57
2019-02-18T14:06:42.186Z,44.83
2019-02-18T14:09:14.171Z,30.27
2019-02-18T14:11:45.998Z,30.30
2019-02-18T14:14:17.820Z,42.17
2019-02-18T14:16:49.562Z,32.50
2019-02-18T14:19:21.330Z,32.67
2019-02-18T14:21:53.317Z,31.20
2019-02-18T14:24:25.002Z,35.17
2019-02-18T14:26:56.884Z,32.60
2019-02-18T14:29:28.753Z,36.50
2019-02-18T14:32:00.665Z,35.30
2019-02-18T14:34:32.527Z,31.80
2019-02-18T14:37:04.315Z,30.57
2019-02-18T14:39:36.099Z,48.27
2019-02-18T14:42:07.974Z,35.00
2019-02-18T14:44:39.746Z,32.13
2019-02-18T14:47:11.547Z,35.80
2019-02-18T14:49:43.425Z,29.97
2019-02-18T14:52:15.498Z,35.00
2019-02-18T14:54:47.157Z,37.53
2019-02-18T14:57:19.044Z,40.83
2019-02-18T14:59:50.843Z,35.00
2019-02-18T15:02:22.637Z,32.20
2019-02-18T15:04:54.419Z,31.90
2019-02-18T15:07:26.121Z,35.60
2019-02-18T15:09:57.813Z,34.40
2019-02-18T15:12:33.089Z,40.53
2019-02-18T15:15:03.428Z,26.87
2019-02-18T15:17:35.234Z,37.70
2019-02-18T15:20:07.071Z,32.83
2019-02-18T15:22:39.412Z,30.63
2019-02-18T15:25:11.176Z,40.53
2019-02-18T15:27:43.029Z,30.23
2019-02-18T15:30:15.156Z,35.00
2019-02-18T15:32:48.073Z,32.17
2019-02-18T15:35:20.174Z,33.00
2019-02-18T15:37:51.985Z,30.50
2019-02-18T15:40:23.977Z,35.57
2019-02-18T15:42:55.770Z,32.57
2019-02-18T15:45:27.437Z,36.97
2019-02-18T15:48:01.713Z,34.23
2019-02-18T15:50:32.905Z,32.40
2019-02-18T15:53:04.612Z,33.80
2019-02-18T15:55:37.546Z,43.70
2019-02-18T15:58:09.271Z,42.27
2019-02-18T16:00:41.070Z,38.33
2019-02-18T16:03:12.841Z,38.27
2019-02-18T16:05:44.546Z,33.20
2019-02-18T16:08:16.290Z,38.17
2019-02-18T16:10:48.057Z,39.93
2019-02-18T16:13:19.750Z,43.63
2019-02-18T16:15:51.560Z,59.90
2019-02-18T16:18:23.365Z,41.67
2019-02-18T16:20:55.126Z,44.23
2019-02-18T16:23:26.850Z,40.73
2019-02-18T16:25:58.806Z,29.77
2019-02-18T16:28:33.240Z,40.90
2019-02-18T16:31:08.941Z,49.77
2019-02-18T16:33:43.087Z,41.60
2019-02-18T16:36:15.324Z,54.47
2019-02-18T16:38:47.118Z,57.10
2019-02-18T16:41:18.854Z,63.03
2019-02-18T16:43:51.414Z,44.03
2019-02-18T16:46:24.053Z,81.60
2019-02-18T16:48:57.050Z,55.23
2019-02-18T16:51:29.083Z,44.23
2019-02-18T16:54:00.762Z,40.80
2019-02-18T16:56:33.132Z,36.13
2019-02-18T16:59:05.176Z,57.60
2019-02-18T17:01:36.900Z,53.37
2019-02-18T17:04:08.726Z,63.47
2019-02-18T17:06:40.371Z,56.53
2019-02-18T17:09:12.476Z,49.07
2019-02-18T17:11:44.445Z,37.90
2019-02-18T17:14:16.229Z,41.27
2019-02-18T17:16:47.963Z,52.07
2019-02-18T17:19:19.707Z,59.40
2019-02-18T17:21:51.446Z,45.00
2019-02-18T17:24:23.276Z,40.43
2019-02-18T17:26:54.902Z,27.27
2019-02-18T17:29:26.544Z,47.40
2019-02-18T17:31:58.273Z,45.97
2019-02-18T17:34:29.955Z,43.80
2019-02-18T17:37:01.792Z,41.83
2019-02-18T17:39:33.441Z,56.37
2019-02-18T17:42:05.074Z,43.23
2019-02-18T17:44:36.872Z,33.93
2019-02-18T17:47:08.587Z,48.30
2019-02-18T17:49:40.516Z,39.53
2019-02-18T17:52:12.169Z,53.00
2019-02-18T17:54:43.926Z,34.00
2019-02-18T17:57:15.653Z,49.77
2019-02-18T17:59:47.298Z,41.97
2019-02-18T18:02:23.000Z,32.97
2019-02-18T18:04:54.725Z,44.80
2019-02-18T18:07:26.348Z,43.87
2019-02-18T18:09:58.091Z,32.53
2019-02-18T18:12:29.743Z,39.30
2019-02-18T18:15:01.694Z,37.73
2019-02-18T18:17:33.434Z,42.13
2019-02-18T18:20:05.590Z,41.63
2019-02-18T18:22:37.333Z,35.37
2019-02-18T18:25:09.241Z,66.00
2019-02-18T18:27:41.173Z,65.43
2019-02-18T18:30:13.553Z,78.57
2019-02-18T18:32:45.394Z,61.27
2019-02-18T18:35:17.164Z,66.03
2019-02-18T18:37:48.794Z,60.13
2019-02-18T18:40:20.538Z,50.10
2019-02-18T18:42:52.159Z,50.63
2019-02-18T18:45:23.783Z,57.63
2019-02-18T18:47:58.427Z,44.47
2019-02-18T18:50:30.453Z,50.80
2019-02-18T18:53:02.086Z,46.30
2019-02-18T18:55:34.063Z,58.57
2019-02-18T18:58:05.702Z,52.50
2019-02-18T19:00:37.370Z,55.77
2019-02-18T19:03:09.328Z,41.30
2019-02-18T19:05:41.068Z,39.30
2019-02-18T19:08:13.069Z,42.20
2019-02-18T19:10:44.782Z,39.63
2019-02-18T19:13:16.447Z,41.13
2019-02-18T19:15:49.800Z,40.20
2019-02-18T19:18:21.636Z,37.23
2019-02-18T19:20:53.385Z,34.27
2019-02-18T19:23:25.014Z,38.20
2019-02-18T19:25:57.063Z,35.70
2019-02-18T19:28:28.724Z,42.67
2019-02-18T19:31:00.494Z,64.73
2019-02-18T19:33:32.120Z,46.77
2019-02-18T19:36:04.836Z,33.27
2019-02-18T19:38:36.775Z,42.43
2019-02-18T19:41:09.017Z,60.30
2019-02-18T19:43:40.887Z,49.27
2019-02-18T19:46:12.740Z,47.60
2019-02-18T19:48:44.562Z,45.17
2019-02-18T19:51:16.284Z,55.37
2019-02-18T19:53:47.951Z,43.53
2019-02-18T19:56:20.753Z,39.87
2019-02-18T19:58:52.614Z,32.50
2019-02-18T20:01:24.332Z,42.57
2019-02-18T20:03:57.016Z,40.17
2019-02-18T20:06:28.769Z,42.40
2019-02-18T20:09:00.433Z,48.57
2019-02-18T20:11:32.216Z,49.23
2019-02-18T20:14:04.293Z,52.07
2019-02-18T20:16:35.978Z,40.83
2019-02-18T20:19:07.706Z,49.23
2019-02-18T20:21:39.541Z,49.10
2019-02-18T20:24:11.343Z,41.97
2019-02-18T20:26:44.548Z,40.00
2019-02-18T20:29:16.552Z,39.03
2019-02-18T20:31:48.452Z,38.30
2019-02-18T20:34:20.324Z,39.03
2019-02-18T20:36:52.407Z,43.80
2019-02-18T20:39:24.547Z,39.60
2019-02-18T20:41:56.571Z,38.60
2019-02-18T20:44:28.433Z,60.07
2019-02-18T20:47:00.388Z,50.23
2019-02-18T20:49:32.536Z,56.73
2019-02-18T20:52:04.513Z,43.50
2019-02-18T20:54:36.285Z,44.20
2019-02-18T20:57:08.078Z,44.17
2019-02-18T20:59:39.853Z,37.67
2019-02-18T21:02:11.848Z,44.87
2019-02-18T21:04:43.630Z,50.63
2019-02-18T21:07:15.437Z,46.40
2019-02-18T21:09:47.234Z,42.27
2019-02-18T21:12:20.022Z,41.07
2019-02-18T21:14:52.607Z,43.30
2019-02-18T21:17:24.406Z,52.87
2019-02-18T21:19:56.165Z,39.50
2019-02-18T21:22:27.940Z,41.97
2019-02-18T21:24:59.812Z,39.70
2019-02-18T21:27:31.598Z,38.40
2019-02-18T21:30:03.734Z,43.27
2019-02-18T21:32:35.547Z,46.80
2019-02-18T21:35:07.431Z,32.90
2019-02-18T21:37:39.199Z,41.20
2019-02-18T21:40:11.100Z,39.67
2019-02-18T21:42:45.346Z,44.73
2019-02-18T21:45:17.084Z,42.47
2019-02-18T21:47:48.865Z,45.57
2019-02-18T21:50:20.638Z,41.40
2019-02-18T21:52:52.427Z,38.40
2019-02-18T21:55:24.186Z,45.50
2019-02-18T21:57:55.977Z,48.67
2019-02-18T22:00:27.742Z,47.27
2019-02-18T22:02:59.712Z,42.33
2019-02-18T22:05:31.509Z,42.37
2019-02-18T22:08:03.506Z,47.27
2019-02-18T22:10:35.272Z,53.00
2019-02-18T22:13:07.069Z,44.83
2019-02-18T22:15:39.207Z,50.83
2019-02-18T22:18:10.980Z,46.07
2019-02-18T22:20:42.737Z,44.70
2019-02-18T22:23:14.520Z,58.40
2019-02-18T22:25:46.288Z,48.63
2019-02-18T22:28:18.197Z,46.17
2019-02-18T22:30:49.960Z,56.80
2019-02-18T22:33:21.724Z,43.97
2019-02-18T22:35:53.475Z,50.03
2019-02-18T22:38:25.267Z,50.53
2019-02-18T22:40:57.334Z,51.60
2019-02-18T22:43:29.116Z,45.90
2019-02-18T22:46:00.878Z,51.13
2019-02-18T22:48:32.679Z,56.43
2019-02-18T22:51:04.440Z,49.37
2019-02-18T22:53:36.209Z,62.80
2019-02-18T22:56:07.985Z,46.00
2019-02-18T22:58:39.790Z,41.87
2019-02-18T23:01:11.761Z,45.77
2019-02-18T23:03:43.532Z,45.50
2019-02-18T23:06:15.284Z,49.93
2019-02-18T23:08:47.251Z,51.17
2019-02-18T23:11:19.014Z,49.13
2019-02-18T23:13:50.763Z,47.43
2019-02-18T23:16:22.544Z,50.53
2019-02-18T23:18:54.312Z,52.00
2019-02-18T23:21:26.378Z,43.53
2019-02-18T23:23:58.164Z,47.80
2019-02-18T23:26:29.936Z,42.73
2019-02-18T23:29:01.721Z,48.83
2019-02-18T23:31:33.490Z,48.03
2019-02-18T23:34:05.443Z,44.77
2019-02-18T23:36:37.308Z,47.20
2019-02-18T23:39:09.181Z,43.40
2019-02-18T23:41:40.925Z,43.50
2019-02-18T23:44:12.705Z,36.70
2019-02-18T23:46:44.468Z,45.60
2019-02-18T23:49:16.145Z,44.10
2019-02-18T23:51:47.960Z,41.10
2019-02-18T23:54:19.733Z,39.83
2019-02-18T23:56:51.501Z,37.47
2019-02-18T23:59:23.299Z,39.00
